createdAt,value
2022-09-12T00:00:12.392Z,15.00
2022-09-12T00:00:50.609Z,13.10
2022-09-12T00:01:28.466Z,14.45
2022-09-12T00:02:04.937Z,14.48
2022-09-12T00:03:12.560Z,14.35
2022-09-12T00:03:50.212Z,13.52
2022-09-12T00:04:26.954Z,14.07
2022-09-12T00:05:01.474Z,13.98
2022-09-12T00:05:46.403Z,13.27
2022-09-12T00:06:34.353Z,16.17
2022-09-12T00:07:17.762Z,13.75
2022-09-12T00:07:51.770Z,16.20
2022-09-12T00:08:25.412Z,14.82
2022-09-12T00:09:03.997Z,14.23
2022-09-12T00:09:38.441Z,13.20
2022-09-12T00:10:14.489Z,14.35
2022-09-12T00:10:56.434Z,14.98
2022-09-12T00:11:28.511Z,14.75
2022-09-12T00:12:02.679Z,12.88
2022-09-12T00:12:47.781Z,13.40
2022-09-12T00:13:19.304Z,14.07
2022-09-12T00:13:50.860Z,13.50
2022-09-12T00:14:31.496Z,14.13
2022-09-12T00:15:17.999Z,13.10
2022-09-12T00:15:52.186Z,12.40
2022-09-12T00:16:38.530Z,12.35
2022-09-12T00:18:03.899Z,12.77
2022-09-12T00:18:57.698Z,14.27
2022-09-12T00:19:35.612Z,13.67
2022-09-12T00:20:13.474Z,12.68
2022-09-12T00:20:56.721Z,13.98
2022-09-12T00:21:40.387Z,13.60
2022-09-12T00:22:15.360Z,14.73
2022-09-12T00:22:49.018Z,14.20
2022-09-12T00:23:28.493Z,14.20
2022-09-12T00:24:11.937Z,15.05
2022-09-12T00:24:49.239Z,15.30
2022-09-12T00:25:29.666Z,14.82
2022-09-12T00:26:12.899Z,16.67
2022-09-12T00:26:53.817Z,15.45
2022-09-12T00:27:31.209Z,13.35
2022-09-12T00:28:12.189Z,15.98
2022-09-12T00:28:56.048Z,15.35
2022-09-12T00:29:34.202Z,15.13
2022-09-12T00:30:09.380Z,15.18
2022-09-12T00:30:45.259Z,18.20
2022-09-12T00:31:23.520Z,14.68
2022-09-12T00:32:00.022Z,14.98
2022-09-12T00:32:39.771Z,16.87
2022-09-12T00:33:13.965Z,15.63
2022-09-12T00:33:50.853Z,15.35
2022-09-12T00:34:24.704Z,16.08
2022-09-12T00:35:23.902Z,16.67
2022-09-12T00:36:00.767Z,16.77
2022-09-12T00:36:32.462Z,16.20
2022-09-12T00:37:21.556Z,16.92
2022-09-12T00:37:55.591Z,17.35
2022-09-12T00:38:27.301Z,15.98
2022-09-12T00:39:07.467Z,15.03
2022-09-12T00:39:39.523Z,15.90
2022-09-12T00:40:17.184Z,16.25
2022-09-12T00:40:53.789Z,15.48
2022-09-12T00:41:31.414Z,16.50
2022-09-12T00:42:13.592Z,16.05
2022-09-12T00:42:45.385Z,17.30
2022-09-12T00:43:41.243Z,17.25
2022-09-12T00:44:20.864Z,16.15
2022-09-12T00:44:54.080Z,20.50
2022-09-12T00:45:39.557Z,16.67
2022-09-12T00:46:31.119Z,19.08
2022-09-12T00:47:15.448Z,17.80
2022-09-12T00:48:06.248Z,18.88
2022-09-12T00:49:15.421Z,17.05
2022-09-12T00:50:03.306Z,18.13
2022-09-12T00:50:42.377Z,17.20
2022-09-12T00:51:23.323Z,17.52
2022-09-12T00:52:28.811Z,16.65
2022-09-12T00:53:20.801Z,17.00
2022-09-12T00:53:57.129Z,16.00
2022-09-12T00:54:42.527Z,16.52
2022-09-12T00:55:32.701Z,18.02
2022-09-12T00:56:11.779Z,16.45
2022-09-12T00:56:47.218Z,20.77
2022-09-12T00:57:27.383Z,17.65
2022-09-12T00:58:13.698Z,18.02
2022-09-12T00:59:10.530Z,16.70
2022-09-12T01:00:04.860Z,17.13
2022-09-12T01:00:41.626Z,19.85
2022-09-12T01:01:18.323Z,17.03
2022-09-12T01:01:55.616Z,18.42
2022-09-12T01:02:32.828Z,18.42
2022-09-12T01:03:12.582Z,19.42
2022-09-12T01:03:44.798Z,17.95
2022-09-12T01:04:21.956Z,18.65
2022-09-12T01:04:59.619Z,19.80
2022-09-12T01:05:45.457Z,23.02
2022-09-12T01:06:35.385Z,19.42
2022-09-12T01:07:21.719Z,17.88
2022-09-12T01:08:05.727Z,18.67
2022-09-12T01:08:41.304Z,19.55
2022-09-12T01:09:26.875Z,18.35
2022-09-12T01:10:09.873Z,19.60
2022-09-12T01:10:52.616Z,17.52
2022-09-12T01:11:32.700Z,17.38
2022-09-12T01:12:11.012Z,20.05
2022-09-12T01:12:46.277Z,19.40
2022-09-12T01:13:26.322Z,18.00
2022-09-12T01:14:03.699Z,17.85
2022-09-12T01:14:38.639Z,19.17
2022-09-12T01:15:30.233Z,17.58
2022-09-12T01:16:17.203Z,18.20
2022-09-12T01:16:52.793Z,18.73
2022-09-12T01:17:39.789Z,17.30
2022-09-12T01:18:32.090Z,18.92
2022-09-12T01:19:40.268Z,18.58
2022-09-12T01:20:33.159Z,17.48
2022-09-12T01:21:52.237Z,18.20
2022-09-12T01:22:57.285Z,16.85
2022-09-12T01:23:51.847Z,17.77
2022-09-12T01:24:44.149Z,16.63
2022-09-12T01:25:36.104Z,17.88
2022-09-12T01:27:20.833Z,19.10
2022-09-12T01:28:18.850Z,17.38
2022-09-12T01:29:15.618Z,16.38
2022-09-12T01:30:05.681Z,18.23
2022-09-12T01:30:59.394Z,17.90
2022-09-12T01:32:10.383Z,16.90
2022-09-12T01:33:29.345Z,17.40
2022-09-12T01:34:19.789Z,16.08
2022-09-12T01:35:04.371Z,19.00
2022-09-12T01:35:57.935Z,16.95
2022-09-12T01:37:22.176Z,18.35
2022-09-12T01:38:46.655Z,15.35
2022-09-12T01:39:37.265Z,15.93
2022-09-12T01:40:43.853Z,17.02
2022-09-12T01:41:37.341Z,16.33
2022-09-12T01:42:32.283Z,17.10
2022-09-12T01:43:27.297Z,15.63
2022-09-12T01:44:24.840Z,18.65
2022-09-12T01:45:23.168Z,18.08
2022-09-12T01:46:27.256Z,18.13
2022-09-12T01:47:32.121Z,18.95
2022-09-12T01:48:18.396Z,17.48
2022-09-12T01:49:06.086Z,14.85
2022-09-12T01:50:11.242Z,15.98
2022-09-12T01:51:11.012Z,16.73
2022-09-12T01:51:53.072Z,16.67
2022-09-12T01:52:54.088Z,16.90
2022-09-12T01:53:47.998Z,16.58
2022-09-12T01:54:26.189Z,17.10
2022-09-12T01:55:25.338Z,21.27
2022-09-12T01:56:21.718Z,18.55
2022-09-12T01:57:01.844Z,19.27
2022-09-12T01:59:11.623Z,17.60
2022-09-12T02:00:00.856Z,18.58
2022-09-12T02:00:46.858Z,23.42
2022-09-12T02:01:35.360Z,18.73
2022-09-12T02:02:21.820Z,18.45
2022-09-12T02:03:16.260Z,20.30
2022-09-12T02:03:57.879Z,17.35
2022-09-12T02:05:02.468Z,18.48
2022-09-12T02:05:41.600Z,17.73
2022-09-12T02:06:29.003Z,19.38
2022-09-12T02:07:35.940Z,19.52
2022-09-12T02:08:19.717Z,17.80
2022-09-12T02:09:04.891Z,18.70
2022-09-12T02:09:54.390Z,24.97
2022-09-12T02:10:38.334Z,17.27
2022-09-12T02:11:12.280Z,18.38
2022-09-12T02:11:52.529Z,20.58
2022-09-12T02:12:31.682Z,19.35
2022-09-12T02:13:39.804Z,19.10
2022-09-12T02:14:23.535Z,19.45
2022-09-12T02:15:07.292Z,19.42
2022-09-12T02:15:49.518Z,18.88
2022-09-12T02:16:45.383Z,18.52
2022-09-12T02:17:31.574Z,19.27
2022-09-12T02:18:10.812Z,18.23
2022-09-12T02:18:53.958Z,22.27
2022-09-12T02:19:47.866Z,21.00
2022-09-12T02:20:49.216Z,17.38
2022-09-12T02:21:35.950Z,19.35
2022-09-12T02:22:21.473Z,18.98
2022-09-12T02:23:04.804Z,19.60
2022-09-12T02:23:49.663Z,18.63
2022-09-12T02:24:31.882Z,20.20
2022-09-12T02:25:14.676Z,19.73
2022-09-12T02:25:56.727Z,18.40
2022-09-12T02:26:44.239Z,19.48
2022-09-12T02:27:31.832Z,18.65
2022-09-12T02:28:17.867Z,18.90
2022-09-12T02:28:54.121Z,19.90
2022-09-12T02:29:36.107Z,19.92
2022-09-12T02:30:13.638Z,22.50
2022-09-12T02:31:04.501Z,22.38
2022-09-12T02:31:52.088Z,21.02
2022-09-12T02:32:37.384Z,19.73
2022-09-12T02:33:26.779Z,20.15
2022-09-12T02:34:27.672Z,21.58
2022-09-12T02:35:34.402Z,21.30
2022-09-12T02:36:24.412Z,18.55
2022-09-12T02:37:13.419Z,19.10
2022-09-12T02:38:17.592Z,18.13
2022-09-12T02:38:52.528Z,19.52
2022-09-12T02:39:32.104Z,20.63
2022-09-12T02:40:10.330Z,19.75
2022-09-12T02:40:49.073Z,18.60
2022-09-12T02:41:36.264Z,19.23
2022-09-12T02:42:16.238Z,20.35
2022-09-12T02:42:50.984Z,20.00
2022-09-12T02:43:29.201Z,22.20
2022-09-12T02:44:08.447Z,21.83
2022-09-12T02:44:53.404Z,20.80
2022-09-12T02:45:32.160Z,20.85
2022-09-12T02:46:11.862Z,22.27
2022-09-12T02:46:53.799Z,20.33
2022-09-12T02:47:43.239Z,22.40
2022-09-12T02:48:36.867Z,19.20
2022-09-12T02:50:17.215Z,20.92
2022-09-12T02:50:55.845Z,22.15
2022-09-12T02:51:30.623Z,24.30
2022-09-12T02:52:08.020Z,19.67
2022-09-12T02:52:45.672Z,20.27
2022-09-12T02:53:22.950Z,25.15
2022-09-12T02:54:05.642Z,19.40
2022-09-12T02:54:46.270Z,19.77
2022-09-12T02:55:20.613Z,21.52
2022-09-12T02:56:00.724Z,20.20
2022-09-12T02:56:37.491Z,21.85
2022-09-12T02:57:22.579Z,20.55
2022-09-12T02:57:57.112Z,23.08
2022-09-12T02:58:33.872Z,20.75
2022-09-12T02:59:17.827Z,22.88
2022-09-12T03:00:05.013Z,21.60
2022-09-12T03:00:53.959Z,20.60
2022-09-12T03:01:27.945Z,20.70
2022-09-12T03:02:19.514Z,20.80
2022-09-12T03:03:05.920Z,21.42
2022-09-12T03:04:08.988Z,22.48
2022-09-12T03:05:25.672Z,20.55
2022-09-12T03:06:29.043Z,20.20
2022-09-12T03:08:57.899Z,21.92
2022-09-12T03:10:03.145Z,19.35
2022-09-12T03:11:21.295Z,21.15
2022-09-12T03:12:21.576Z,20.97
2022-09-12T03:13:01.175Z,19.38
2022-09-12T03:13:56.113Z,21.48
2022-09-12T03:14:55.076Z,22.67
2022-09-12T03:16:04.253Z,18.58
2022-09-12T03:17:23.993Z,19.13
2022-09-12T03:18:52.616Z,22.25
2022-09-12T03:21:20.233Z,21.35
2022-09-12T03:23:41.309Z,22.57
2022-09-12T03:24:49.159Z,19.92
2022-09-12T03:25:53.674Z,17.98
2022-09-12T03:27:01.097Z,19.88
2022-09-12T03:27:54.146Z,20.25
2022-09-12T03:28:35.362Z,21.92
2022-09-12T03:29:22.827Z,21.63
2022-09-12T03:30:07.897Z,22.13
2022-09-12T03:30:53.877Z,21.40
2022-09-12T03:31:28.053Z,20.30
2022-09-12T03:32:08.199Z,21.00
2022-09-12T03:32:47.474Z,21.70
2022-09-12T03:33:33.595Z,20.92
2022-09-12T03:34:15.447Z,26.58
2022-09-12T03:34:53.268Z,21.75
2022-09-12T03:35:25.692Z,21.35
2022-09-12T03:36:04.282Z,20.55
2022-09-12T03:36:41.097Z,22.17
2022-09-12T03:37:18.128Z,22.17
2022-09-12T03:37:53.270Z,21.23
2022-09-12T03:38:36.007Z,20.70
2022-09-12T03:39:12.836Z,21.75
2022-09-12T03:39:57.314Z,21.55
2022-09-12T03:40:49.315Z,21.95
2022-09-12T03:41:25.677Z,19.60
2022-09-12T03:42:12.616Z,21.25
2022-09-12T03:42:46.352Z,21.95
2022-09-12T03:43:37.232Z,20.13
2022-09-12T03:44:11.857Z,20.98
2022-09-12T03:44:53.396Z,21.75
2022-09-12T03:45:29.628Z,20.17
2022-09-12T03:46:01.365Z,21.27
2022-09-12T03:46:40.982Z,20.45
2022-09-12T03:47:15.653Z,21.10
2022-09-12T03:47:49.702Z,18.80
2022-09-12T03:48:26.868Z,19.45
2022-09-12T03:49:04.845Z,19.75
2022-09-12T03:49:53.800Z,19.05
2022-09-12T03:50:28.024Z,19.67
2022-09-12T03:51:14.990Z,19.52
2022-09-12T03:51:49.301Z,17.80
2022-09-12T03:52:28.350Z,18.80
2022-09-12T03:53:06.145Z,18.88
2022-09-12T03:53:40.584Z,23.05
2022-09-12T03:54:16.613Z,20.85
2022-09-12T03:54:55.934Z,23.90
2022-09-12T03:55:35.682Z,20.00
2022-09-12T03:56:18.628Z,19.35
2022-09-12T03:56:52.784Z,21.63
2022-09-12T03:57:31.321Z,19.67
2022-09-12T03:58:10.382Z,21.07
2022-09-12T03:58:58.048Z,20.25
2022-09-12T03:59:32.907Z,18.08
2022-09-12T04:00:19.052Z,19.10
2022-09-12T04:00:56.588Z,20.15
2022-09-12T04:01:30.515Z,20.00
2022-09-12T04:02:17.189Z,22.30
2022-09-12T04:02:50.760Z,20.15
2022-09-12T04:03:30.507Z,19.27
2022-09-12T04:04:04.712Z,18.00
2022-09-12T04:04:53.602Z,21.37
2022-09-12T04:05:37.533Z,18.60
2022-09-12T04:06:10.637Z,17.63
2022-09-12T04:06:49.532Z,20.45
2022-09-12T04:07:25.151Z,17.65
2022-09-12T04:08:09.432Z,17.77
2022-09-12T04:08:44.876Z,17.25
2022-09-12T04:09:17.576Z,19.00
2022-09-12T04:09:53.827Z,18.42
2022-09-12T04:10:28.271Z,21.95
2022-09-12T04:11:15.212Z,18.77
2022-09-12T04:11:49.284Z,19.40
2022-09-12T04:12:34.050Z,19.95
2022-09-12T04:13:14.612Z,21.35
2022-09-12T04:13:52.419Z,19.83
2022-09-12T04:14:28.876Z,20.45
2022-09-12T04:15:16.160Z,22.15
2022-09-12T04:16:09.481Z,20.92
2022-09-12T04:16:50.689Z,23.67
2022-09-12T04:17:25.292Z,22.77
2022-09-12T04:18:30.351Z,21.60
2022-09-12T04:19:06.638Z,23.40
2022-09-12T04:19:50.369Z,22.35
2022-09-12T04:20:28.392Z,19.77
2022-09-12T04:21:07.082Z,19.63
2022-09-12T04:21:45.550Z,19.17
2022-09-12T04:22:22.607Z,21.90
2022-09-12T04:23:05.793Z,20.60
2022-09-12T04:23:44.798Z,18.48
2022-09-12T04:24:19.225Z,17.17
2022-09-12T04:25:00.404Z,16.90
2022-09-12T04:25:36.548Z,19.25
2022-09-12T04:26:16.515Z,16.02
2022-09-12T04:27:07.748Z,18.00
2022-09-12T04:27:47.319Z,16.35
2022-09-12T04:28:37.535Z,20.02
2022-09-12T04:29:23.417Z,17.55
2022-09-12T04:30:10.438Z,18.17
2022-09-12T04:30:44.373Z,17.23
2022-09-12T04:31:27.473Z,18.35
2022-09-12T04:32:01.678Z,19.20
2022-09-12T04:32:40.833Z,17.02
2022-09-12T04:33:12.342Z,18.38
2022-09-12T04:33:47.158Z,20.50
2022-09-12T04:34:18.806Z,19.17
2022-09-12T04:34:52.304Z,19.88
2022-09-12T04:35:24.043Z,20.17
2022-09-12T04:35:55.685Z,18.50
2022-09-12T04:36:28.765Z,20.67
2022-09-12T04:37:00.569Z,18.48
2022-09-12T04:37:32.029Z,17.83
2022-09-12T04:38:03.575Z,18.30
2022-09-12T04:38:36.502Z,19.40
2022-09-12T04:39:08.345Z,19.23
2022-09-12T04:39:40.003Z,19.88
2022-09-12T04:40:11.591Z,20.27
2022-09-12T04:40:43.368Z,20.98
2022-09-12T04:41:18.472Z,19.38
2022-09-12T04:41:50.121Z,19.95
2022-09-12T04:42:23.074Z,19.05
2022-09-12T04:42:56.189Z,19.87
2022-09-12T04:43:28.165Z,21.75
2022-09-12T04:44:04.897Z,18.90
2022-09-12T04:44:38.700Z,44.33
2022-09-12T04:45:10.560Z,19.35
2022-09-12T04:45:42.104Z,22.48
2022-09-12T04:46:16.673Z,20.95
2022-09-12T04:46:48.300Z,20.60
2022-09-12T04:47:20.165Z,23.70
2022-09-12T04:47:52.453Z,20.63
2022-09-12T04:48:27.089Z,22.10
2022-09-12T04:48:58.733Z,20.35
2022-09-12T04:49:30.246Z,23.63
2022-09-12T04:50:01.914Z,22.20
2022-09-12T04:50:33.538Z,25.50
2022-09-12T04:51:14.774Z,24.75
2022-09-12T04:51:49.314Z,20.48
2022-09-12T04:52:27.688Z,25.25
2022-09-12T04:53:08.866Z,22.13
2022-09-12T04:53:45.759Z,24.00
2022-09-12T04:54:22.169Z,23.87
2022-09-12T04:54:56.759Z,23.30
2022-09-12T04:55:35.752Z,26.33
2022-09-12T04:56:14.415Z,25.65
2022-09-12T04:56:48.928Z,25.75
2022-09-12T04:57:20.732Z,23.45
2022-09-12T04:57:52.999Z,22.15
2022-09-12T04:58:26.190Z,23.50
2022-09-12T04:59:09.736Z,23.65
2022-09-12T04:59:41.491Z,24.48
2022-09-12T05:00:16.052Z,21.53
2022-09-12T05:00:49.701Z,23.10
2022-09-12T05:01:22.995Z,24.80
2022-09-12T05:01:56.025Z,22.63
2022-09-12T05:02:28.976Z,25.10
2022-09-12T05:03:02.681Z,21.35
2022-09-12T05:03:34.743Z,22.67
2022-09-12T05:04:06.344Z,22.33
2022-09-12T05:04:40.738Z,20.85
2022-09-12T05:05:12.573Z,21.35
2022-09-12T05:05:44.312Z,22.80
2022-09-12T05:06:19.236Z,24.08
2022-09-12T05:06:50.744Z,24.00
2022-09-12T05:07:28.376Z,22.08
2022-09-12T05:08:00.092Z,20.60
2022-09-12T05:08:31.754Z,24.17
2022-09-12T05:09:05.385Z,24.20
2022-09-12T05:09:42.451Z,21.08
2022-09-12T05:10:18.191Z,23.52
2022-09-12T05:10:54.433Z,21.70
2022-09-12T05:12:02.158Z,23.83
2022-09-12T05:42:56.133Z,31.10
2022-09-12T05:43:27.694Z,34.13
2022-09-12T05:44:07.091Z,37.25
2022-09-12T05:44:38.580Z,32.55
2022-09-12T05:45:10.175Z,29.85
2022-09-12T05:45:42.138Z,34.60
2022-09-12T05:46:16.409Z,32.63
2022-09-12T05:46:50.778Z,31.02
2022-09-12T05:57:12.865Z,33.45
2022-09-12T06:32:12.186Z,42.22
2022-09-12T06:32:43.623Z,47.60
2022-09-12T06:33:15.587Z,44.05
2022-09-12T06:33:49.986Z,40.47
2022-09-12T06:34:21.446Z,41.08
2022-09-12T06:34:52.830Z,41.95
2022-09-12T06:37:25.797Z,42.25
2022-09-12T06:37:57.179Z,40.92
2022-09-12T06:39:48.772Z,42.20
2022-09-12T06:40:20.345Z,45.03
2022-09-12T06:41:32.476Z,42.08
2022-09-12T06:42:03.969Z,43.97
2022-09-12T06:42:35.447Z,43.63
2022-09-12T06:43:07.015Z,43.25
2022-09-12T06:43:39.905Z,44.78
2022-09-12T06:44:17.818Z,53.72
2022-09-12T06:44:50.422Z,56.42
2022-09-12T06:45:22.778Z,46.70
2022-09-12T06:45:54.289Z,47.92
2022-09-12T06:46:27.105Z,46.42
2022-09-12T06:46:58.754Z,51.55
2022-09-12T06:47:30.242Z,46.50
2022-09-12T06:48:02.655Z,51.08
2022-09-12T06:48:38.325Z,54.97
2022-09-12T06:49:13.352Z,50.60
2022-09-12T06:49:44.771Z,47.33
2022-09-12T06:50:16.264Z,50.00
2022-09-12T06:51:02.403Z,48.22
2022-09-12T06:51:36.210Z,45.90
2022-09-12T06:52:07.605Z,45.42
2022-09-12T06:52:39.058Z,45.88
2022-09-12T06:53:10.471Z,45.87
2022-09-12T06:53:44.212Z,51.95
2022-09-12T06:54:17.019Z,47.67
2022-09-12T06:54:49.086Z,51.13
2022-09-12T06:55:23.573Z,50.38
2022-09-12T06:56:00.713Z,46.05
2022-09-12T06:56:32.241Z,52.50
2022-09-12T06:57:03.854Z,45.33
2022-09-12T06:57:36.976Z,45.38
2022-09-12T06:58:08.438Z,48.03
2022-09-12T06:58:40.964Z,45.80
2022-09-12T06:59:12.746Z,48.67
2022-09-12T06:59:44.825Z,46.67
2022-09-12T07:00:16.371Z,56.10
2022-09-12T07:00:47.790Z,48.30
2022-09-12T07:01:21.946Z,49.28
2022-09-12T07:01:53.532Z,51.58
2022-09-12T07:02:25.745Z,51.28
2022-09-12T07:02:57.224Z,51.53
2022-09-12T07:03:29.138Z,48.60
2022-09-12T07:04:03.821Z,56.07
2022-09-12T07:04:36.618Z,51.95
2022-09-12T07:05:09.093Z,55.95
2022-09-12T07:05:40.500Z,54.63
2022-09-12T07:06:13.767Z,57.13
2022-09-12T07:06:45.167Z,54.78
2022-09-12T07:07:16.755Z,52.13
2022-09-12T07:08:00.267Z,57.40
2022-09-12T07:08:37.140Z,50.40
2022-09-12T07:09:18.477Z,56.28
2022-09-12T07:09:52.541Z,49.90
2022-09-12T07:10:31.309Z,56.47
2022-09-12T07:11:20.807Z,57.17
2022-09-12T07:11:52.227Z,54.17
2022-09-12T07:12:23.599Z,55.75
2022-09-12T07:12:55.041Z,56.97
2022-09-12T07:13:27.150Z,54.65
2022-09-12T07:14:03.198Z,54.80
2022-09-12T07:14:34.679Z,56.30
2022-09-12T07:15:06.684Z,60.55
2022-09-12T07:15:38.233Z,61.40
2022-09-12T07:16:17.311Z,54.47
2022-09-12T07:16:50.804Z,55.60
2022-09-12T07:17:22.256Z,60.58
2022-09-12T07:17:54.523Z,56.70
2022-09-12T07:18:26.061Z,61.13
2022-09-12T07:19:02.364Z,63.78
2022-09-12T07:19:37.013Z,57.60
2022-09-12T07:20:08.712Z,63.33
2022-09-12T07:20:40.673Z,58.60
2022-09-12T07:21:14.869Z,56.87
2022-09-12T07:21:46.352Z,55.60
2022-09-12T07:22:17.711Z,60.30
2022-09-12T07:22:50.575Z,55.03
2022-09-12T07:23:21.969Z,60.95
2022-09-12T07:23:55.237Z,56.97
2022-09-12T07:24:27.168Z,57.92
2022-09-12T07:24:59.025Z,58.97
2022-09-12T07:25:30.462Z,54.33
2022-09-12T07:26:02.562Z,61.97
2022-09-12T07:26:34.525Z,61.73
2022-09-12T07:27:05.887Z,60.45
2022-09-12T07:27:37.743Z,61.10
2022-09-12T07:28:09.137Z,56.22
2022-09-12T07:28:40.998Z,58.47
2022-09-12T07:30:08.643Z,63.92
2022-09-12T07:30:40.468Z,59.60
2022-09-12T07:31:17.671Z,56.30
2022-09-12T07:31:49.595Z,62.08
2022-09-12T07:32:23.538Z,57.07
2022-09-12T07:32:55.062Z,59.70
2022-09-12T07:33:29.598Z,58.45
2022-09-12T07:34:08.251Z,57.55
2022-09-12T07:34:40.622Z,59.10
2022-09-12T07:35:12.159Z,58.17
2022-09-12T07:35:47.692Z,56.60
2022-09-12T07:36:23.493Z,61.67
2022-09-12T07:36:58.101Z,68.30
2022-09-12T07:37:32.202Z,63.55
2022-09-12T07:38:04.073Z,59.17
2022-09-12T07:38:35.533Z,60.17
2022-09-12T07:39:06.958Z,55.30
2022-09-12T07:39:38.614Z,56.38
2022-09-12T07:40:11.802Z,63.90
2022-09-12T07:40:43.895Z,57.97
2022-09-12T07:41:21.629Z,55.05
2022-09-12T07:41:53.157Z,51.05
2022-09-12T07:42:24.696Z,54.47
2022-09-12T07:42:58.605Z,54.05
2022-09-12T07:43:34.023Z,53.90
2022-09-12T07:44:10.690Z,53.97
2022-09-12T07:44:42.237Z,53.33
2022-09-12T07:45:13.815Z,58.45
2022-09-12T07:45:45.272Z,56.90
2022-09-12T07:46:16.791Z,55.88
2022-09-12T07:46:48.171Z,54.15
2022-09-12T07:47:22.591Z,52.28
2022-09-12T07:47:59.276Z,51.53
2022-09-12T07:48:30.870Z,54.30
2022-09-12T07:49:03.250Z,57.50
2022-09-12T07:49:35.124Z,50.78
2022-09-12T07:50:07.071Z,52.78
2022-09-12T07:50:42.026Z,55.53
2022-09-12T07:51:17.439Z,52.63
2022-09-12T07:51:50.780Z,51.88
2022-09-12T07:52:22.255Z,54.38
2022-09-12T07:52:55.047Z,52.83
2022-09-12T07:53:30.761Z,55.13
2022-09-12T07:54:07.104Z,53.97
2022-09-12T07:54:38.760Z,54.80
2022-09-12T07:55:10.162Z,54.45
2022-09-12T07:55:41.720Z,52.60
2022-09-12T07:56:13.709Z,48.55
2022-09-12T07:56:45.792Z,55.28
2022-09-12T07:57:17.268Z,51.35
2022-09-12T07:57:53.827Z,53.38
2022-09-12T07:58:25.640Z,53.28
2022-09-12T07:58:57.245Z,49.08
2022-09-12T07:59:50.914Z,50.47
2022-09-12T08:00:20.330Z,46.70
2022-09-12T08:00:54.268Z,49.95
2022-09-12T08:01:26.458Z,52.30
2022-09-12T08:02:06.603Z,48.13
2022-09-12T08:02:39.517Z,50.05
2022-09-12T08:03:11.102Z,49.47
2022-09-12T08:03:44.715Z,51.67
2022-09-12T08:04:18.512Z,50.60
2022-09-12T08:04:51.439Z,46.25
2022-09-12T08:05:23.103Z,52.25
2022-09-12T08:05:54.834Z,48.43
2022-09-12T08:06:38.681Z,47.78
2022-09-12T08:07:15.950Z,54.40
2022-09-12T08:07:47.610Z,54.15
2022-09-12T08:08:18.984Z,50.90
2022-09-12T08:08:51.687Z,47.78
2022-09-12T08:09:23.078Z,52.65
2022-09-12T08:09:54.524Z,47.15
2022-09-12T08:10:25.962Z,55.20
2022-09-12T08:10:59.865Z,54.58
2022-09-12T08:11:31.339Z,51.70
2022-09-12T08:12:03.284Z,53.08
2022-09-12T08:12:35.171Z,48.00
2022-09-12T08:13:08.755Z,55.00
2022-09-12T08:13:43.036Z,48.20
2022-09-12T08:14:14.577Z,46.70
2022-09-12T08:14:46.543Z,41.15
2022-09-12T08:15:17.929Z,49.47
2022-09-12T08:15:49.414Z,49.92
2022-09-12T08:16:22.237Z,44.67
2022-09-12T08:16:53.661Z,43.77
2022-09-12T08:17:25.082Z,45.33
2022-09-12T08:17:56.456Z,49.75
2022-09-12T08:18:29.639Z,49.50
2022-09-12T08:19:02.435Z,43.47
2022-09-12T08:19:33.872Z,42.63
2022-09-12T08:20:05.733Z,40.17
2022-09-12T08:20:37.446Z,46.53
2022-09-12T08:21:23.998Z,42.80
2022-09-12T08:21:55.358Z,51.53
2022-09-12T08:22:26.729Z,49.20
2022-09-12T08:22:58.154Z,46.28
2022-09-12T08:23:30.255Z,44.80
2022-09-12T08:24:04.071Z,45.85
2022-09-12T08:24:35.542Z,46.58
2022-09-12T08:25:07.429Z,44.45
2022-09-12T08:25:38.819Z,48.10
2022-09-12T08:26:11.499Z,44.28
2022-09-12T08:26:43.234Z,45.22
2022-09-12T08:27:14.855Z,45.92
2022-09-12T08:27:46.876Z,47.50
2022-09-12T08:28:18.337Z,42.28
2022-09-12T08:28:50.003Z,46.17
2022-09-12T08:29:21.506Z,45.08
2022-09-12T08:29:53.660Z,42.95
2022-09-12T08:30:25.097Z,43.20
2022-09-12T08:31:12.987Z,45.45
2022-09-12T08:31:44.554Z,46.70
2022-09-12T08:32:15.974Z,44.55
2022-09-12T08:32:47.354Z,37.50
2022-09-12T08:33:19.403Z,41.53
2022-09-12T08:33:51.178Z,42.95
2022-09-12T08:34:22.721Z,44.75
2022-09-12T08:34:54.118Z,38.35
2022-09-12T08:35:25.432Z,45.28
2022-09-12T08:36:05.678Z,39.92
2022-09-12T08:36:37.069Z,44.30
2022-09-12T08:37:08.448Z,43.03
2022-09-12T08:37:40.528Z,41.60
2022-09-12T08:38:11.940Z,40.00
2022-09-12T08:38:45.646Z,40.30
2022-09-12T08:39:17.118Z,45.38
2022-09-12T08:39:48.613Z,42.58
2022-09-12T08:40:20.134Z,43.72
2022-09-12T08:41:01.007Z,42.75
2022-09-12T08:41:35.320Z,40.45
2022-09-12T08:42:07.310Z,38.28
2022-09-12T08:42:55.506Z,37.53
2022-09-12T08:43:52.022Z,41.83
2022-09-12T08:44:49.595Z,35.28
2022-09-12T08:45:34.670Z,41.83
2022-09-12T08:46:18.379Z,37.55
2022-09-12T08:47:10.758Z,36.47
2022-09-12T08:47:45.438Z,37.67
2022-09-12T08:48:16.883Z,37.72
2022-09-12T08:48:48.710Z,31.17
2022-09-12T08:49:31.066Z,31.25
2022-09-12T08:50:08.777Z,36.40
2022-09-12T08:50:49.251Z,31.90
2022-09-12T08:51:21.988Z,33.15
2022-09-12T08:51:55.167Z,33.67
2022-09-12T08:52:35.923Z,36.20
2022-09-12T08:53:15.918Z,35.95
2022-09-12T08:53:51.287Z,33.90
2022-09-12T08:54:28.775Z,33.58
2022-09-12T08:55:04.110Z,32.55
2022-09-12T08:55:38.164Z,34.47
2022-09-12T08:56:11.769Z,35.13
2022-09-12T08:56:43.391Z,34.53
2022-09-12T08:57:15.406Z,30.65
2022-09-12T08:57:46.821Z,34.10
2022-09-12T08:58:22.571Z,33.28
2022-09-12T08:58:53.975Z,33.70
2022-09-12T08:59:25.643Z,30.90
2022-09-12T08:59:57.192Z,32.47
2022-09-12T09:00:38.436Z,29.95
2022-09-12T09:01:19.079Z,28.50
2022-09-12T09:01:55.424Z,31.00
2022-09-12T09:02:57.253Z,32.75
2022-09-12T09:03:53.210Z,32.45
2022-09-12T09:04:31.020Z,28.50
2022-09-12T09:05:17.790Z,27.35
2022-09-12T09:05:59.178Z,29.13
2022-09-12T09:07:01.478Z,33.38
2022-09-12T09:07:54.951Z,33.70
2022-09-12T09:08:46.239Z,27.88
2022-09-12T09:09:32.789Z,28.02
2022-09-12T09:10:18.099Z,27.88
2022-09-12T09:11:13.960Z,30.27
2022-09-12T09:12:15.811Z,25.33
2022-09-12T09:13:12.115Z,29.37
2022-09-12T09:14:40.655Z,26.13
2022-09-12T09:15:26.932Z,25.27
2022-09-12T09:16:31.187Z,25.88
2022-09-12T09:17:03.268Z,26.83
2022-09-12T09:17:41.424Z,27.60
2022-09-12T09:18:23.228Z,32.40
2022-09-12T09:18:58.696Z,30.30
2022-09-12T09:19:40.686Z,26.40
2022-09-12T09:20:49.575Z,29.42
2022-09-12T09:21:38.265Z,26.17
2022-09-12T09:22:36.283Z,25.60
2022-09-12T09:23:22.195Z,27.33
2022-09-12T09:24:07.726Z,24.40
2022-09-12T09:24:53.749Z,27.65
2022-09-12T09:25:36.850Z,26.38
2022-09-12T09:26:17.767Z,31.20
2022-09-12T09:27:01.992Z,26.40
2022-09-12T09:28:04.410Z,27.48
2022-09-12T09:28:42.310Z,26.90
2022-09-12T09:29:22.550Z,26.60
2022-09-12T09:29:56.001Z,23.48
2022-09-12T09:30:28.622Z,34.25
2022-09-12T09:31:00.137Z,29.40
2022-09-12T09:31:37.711Z,25.13
2022-09-12T09:32:18.183Z,26.25
2022-09-12T09:32:54.098Z,24.13
2022-09-12T09:33:30.830Z,26.25
2022-09-12T09:34:13.000Z,27.90
2022-09-12T09:34:44.730Z,25.73
2022-09-12T09:35:24.847Z,26.30
2022-09-12T09:36:12.117Z,24.85
2022-09-12T09:36:50.993Z,26.67
2022-09-12T09:37:38.819Z,23.90
2022-09-12T09:38:25.417Z,25.15
2022-09-12T09:39:05.715Z,21.98
2022-09-12T09:39:49.100Z,21.50
2022-09-12T09:40:23.472Z,22.77
2022-09-12T09:41:17.098Z,21.60
2022-09-12T09:42:08.078Z,22.63
2022-09-12T09:42:51.576Z,23.23
2022-09-12T09:43:27.398Z,18.92
2022-09-12T09:43:59.852Z,19.38
2022-09-12T09:44:31.590Z,22.60
2022-09-12T09:45:11.970Z,22.65
2022-09-12T09:45:47.268Z,22.20
2022-09-12T09:46:19.549Z,22.75
2022-09-12T09:46:55.525Z,21.70
2022-09-12T09:47:27.015Z,20.27
2022-09-12T09:48:06.079Z,22.05
2022-09-12T09:48:41.911Z,23.40
2022-09-12T09:49:16.352Z,21.85
2022-09-12T09:49:47.812Z,23.02
2022-09-12T09:50:19.416Z,21.20
2022-09-12T09:50:51.370Z,20.05
2022-09-12T09:51:35.999Z,20.88
2022-09-12T09:52:08.568Z,21.08
2022-09-12T09:52:40.661Z,24.45
2022-09-12T09:53:29.495Z,19.42
2022-09-12T09:54:21.327Z,21.80
2022-09-12T09:54:58.354Z,24.07
2022-09-12T09:55:39.839Z,21.92
2022-09-12T09:56:35.112Z,20.23
2022-09-12T09:57:35.495Z,25.23
2022-09-12T09:58:06.905Z,19.10
2022-09-12T09:58:41.540Z,18.50
2022-09-12T09:59:19.015Z,19.98
2022-09-12T09:59:50.394Z,19.80
2022-09-12T10:00:21.982Z,20.52
2022-09-12T10:00:59.988Z,20.67
2022-09-12T10:01:31.531Z,19.07